KERI/ERI METAR and TAF weather

Enter ICAO airport designator
Station Type Date Time Source
KERI METAR 2020/07/08 20:51 UTC NOAA

KERI 082051Z 31003KT 10SM CLR 29/21 A2994 RMK AO2 SLP131 T02890211 56015


Station Type Date Time Source
KERI Decoded METAR 2020/07/08 20:51 UTC NOAA

ERIE INTERNATIONAL AIRPORT, PA, United States (KERI) 42-05N 080-11W 222M
Jul 08, 2020 - 04:51 PM EDT / 2020.07.08 2051 UTC
Wind: from the NW (310 degrees) at 3 MPH (3 KT):0
Visibility: 10 mile(s):0
Sky conditions: clear
Temperature: 84.0 F (28.9 C)
Dew Point: 70.0 F (21.1 C)
Relative Humidity: 62%
Pressure (altimeter): 29.94 in. Hg (1013 hPa)
Pressure tendency: 0.04 inches (1.5 hPa) lower than three hours ago
ob: KERI 082051Z 31003KT 10SM CLR 29/21 A2994 RMK AO2 SLP131 T02890211 56015
cycle: 21

Station Type Date Time Source
KERI TAF 2020/07/08 18:36 UTC NOAA

TAF KERI 081734Z 0818/0918 30010KT P6SM SCT250
FM090000 VRB03KT P6SM SKC
FM091600 01007KT P6SM FEW050 SCT250

Example: see airport list